Chino Hills, California
Current Conditions -  °F | °C
As of 1:53 AM on Friday 31 Oct 2014 (Local Time) from KCNO Reporting Station
Clear Clear  
Wind Chill: 55°   Ceiling: Unl
Heat Index: 55°   Visibility: 7mi
Dew Point: 52°   Wind: 3mph
Humidity: 89%   Direction: 300°WNW
Pressure: 29.98"   Gusts: NA
Location:  34°N, 117.75°W
Report Text: KCNO 310853Z 30003KT 7SM CLR 13/11 A2998 RMK AO2 SLP147 T01280111 56003
Loading
Personal Weather Stations






























Interactive Weather Map
Tropical Storm Tracking
New forecast layout! Learn more

10-Day Weather Forecast

Advertisements
Track Severe Weather on mobile